Time;durP1;ratioP1;P1;durP2;ratioP2;P2;SDS_P1;SDS_P2;PMS_P1;PMS_P2;Temp;Humidity;BMP_temperature;BMP_pressure;BME280_temperature;BME280_humidity;BME280_pressure;Samples;Min_cycle;Max_cycle;Signal;HPM_P1;HPM_P2
2021/11/21 00:01:42;;;;;;;10.80;5.57;;;;;;;;;;6140841;23;20005;-73
2021/11/21 00:04:08;;;;;;;7.53;5.65;;;;;;;;;;6142548;23;20489;-73
2021/11/21 00:06:35;;;;;;;10.40;6.13;;;;;;;;;;6143000;23;20020;-73
2021/11/21 00:09:01;;;;;;;7.75;5.32;;;;;;;;;;6141093;23;20014;-72
2021/11/21 00:11:27;;;;;;;7.30;5.18;;;;;;;;;;6142739;23;20080;-73
2021/11/21 00:13:53;;;;;;;8.27;5.50;;;;;;;;;;6142144;23;20033;-72
2021/11/21 00:16:19;;;;;;;15.50;5.32;;;;;;;;;;6142960;23;20041;-73
2021/11/21 00:18:46;;;;;;;7.05;5.00;;;;;;;;;;6143006;23;20031;-73
2021/11/21 00:21:12;;;;;;;8.10;5.82;;;;;;;;;;6139865;23;20001;-73
2021/11/21 00:23:38;;;;;;;11.15;5.32;;;;;;;;;;6141261;23;20478;-73
2021/11/21 00:26:04;;;;;;;7.93;5.35;;;;;;;;;;6142370;23;20013;-73
2021/11/21 00:28:31;;;;;;;8.20;5.43;;;;;;;;;;6142074;23;20459;-73
2021/11/21 00:30:57;;;;;;;7.13;5.05;;;;;;;;;;6142415;23;20005;-73
2021/11/21 00:33:23;;;;;;;7.95;5.25;;;;;;;;;;6140288;23;20001;-73
2021/11/21 00:35:49;;;;;;;8.90;5.28;;;;;;;;;;6142567;23;20017;-72
2021/11/21 00:38:15;;;;;;;9.70;5.43;;;;;;;;;;6142216;23;20001;-72
2021/11/21 00:40:42;;;;;;;7.32;5.68;;;;;;;;;;6142022;23;20005;-73
2021/11/21 00:43:08;;;;;;;7.85;5.63;;;;;;;;;;6142417;23;20263;-73
2021/11/21 00:45:34;;;;;;;7.90;5.63;;;;;;;;;;6141129;23;20005;-73
2021/11/21 00:48:01;;;;;;;8.77;5.45;;;;;;;;;;6143152;23;20041;-73
2021/11/21 00:50:28;;;;;;;8.27;5.97;;;;;;;;;;6142065;23;20078;-72
2021/11/21 00:53:05;;;;;;;11.55;5.65;;;;;;;;;;6142055;23;20005;-72
2021/11/21 00:55:35;;;;;;;8.50;5.47;;;;;;;;;;6142075;23;20045;-73
2021/11/21 00:58:02;;;;;;;7.53;5.40;;;;;;;;;;6141124;23;20045;-72
2021/11/21 01:00:28;;;;;;;7.95;5.63;;;;;;;;;;6142098;23;20077;-72
2021/11/21 01:02:55;;;;;;;10.60;5.80;;;;;;;;;;6116197;23;20080;-73
2021/11/21 01:05:21;;;;;;;7.18;5.60;;;;;;;;;;6141836;23;19998;-73
2021/11/21 01:07:47;;;;;;;9.50;5.90;;;;;;;;;;6141841;23;20056;-72
2021/11/21 01:10:15;;;;;;;8.68;6.00;;;;;;;;;;6142117;23;20005;-72
2021/11/21 01:12:42;;;;;;;10.23;5.78;;;;;;;;;;6140968;23;20012;-72
2021/11/21 01:15:10;;;;;;;8.70;6.00;;;;;;;;;;6142461;23;20405;-72
2021/11/21 01:17:37;;;;;;;7.85;5.22;;;;;;;;;;6142657;23;20002;-72
2021/11/21 01:20:04;;;;;;;10.23;6.10;;;;;;;;;;6139744;23;20005;-72
2021/11/21 01:22:31;;;;;;;7.78;5.88;;;;;;;;;;6140806;23;20092;-72
2021/11/21 01:24:58;;;;;;;9.38;5.65;;;;;;;;;;6142373;23;20025;-72
2021/11/21 01:27:25;;;;;;;8.57;5.75;;;;;;;;;;6142291;23;20014;-72
2021/11/21 01:29:51;;;;;;;6.93;5.50;;;;;;;;;;6140757;23;20016;-72
2021/11/21 01:32:17;;;;;;;8.02;5.63;;;;;;;;;;6141816;23;20005;-73
2021/11/21 01:34:43;;;;;;;11.25;5.70;;;;;;;;;;6142511;23;20005;-72
2021/11/21 01:37:09;;;;;;;7.30;5.90;;;;;;;;;;6142382;23;20292;-72
2021/11/21 01:39:35;;;;;;;8.20;5.85;;;;;;;;;;6142588;23;20033;-72
2021/11/21 01:42:01;;;;;;;8.82;5.65;;;;;;;;;;6141053;23;20005;-71
2021/11/21 01:44:28;;;;;;;7.80;4.95;;;;;;;;;;6141811;23;20002;-72
2021/11/21 01:46:54;;;;;;;8.63;5.47;;;;;;;;;;6144367;23;20423;-72
2021/11/21 01:49:20;;;;;;;9.13;5.57;;;;;;;;;;6142651;23;20472;-72
2021/11/21 01:51:47;;;;;;;6.90;5.00;;;;;;;;;;6143953;23;20121;-73
2021/11/21 01:54:14;;;;;;;8.73;5.30;;;;;;;;;;6143834;23;20006;-72
2021/11/21 01:56:41;;;;;;;7.72;5.45;;;;;;;;;;6143083;23;20015;-73
2021/11/21 01:59:07;;;;;;;9.70;4.75;;;;;;;;;;6141876;23;20409;-72
2021/11/21 02:01:33;;;;;;;8.05;5.20;;;;;;;;;;6143771;23;20002;-72
2021/11/21 02:04:00;;;;;;;8.65;4.80;;;;;;;;;;6142936;23;20415;-72
2021/11/21 02:06:26;;;;;;;9.27;5.40;;;;;;;;;;6144096;23;20076;-72
2021/11/21 02:08:53;;;;;;;7.63;5.60;;;;;;;;;;6141734;23;20028;-73
2021/11/21 02:11:22;;;;;;;8.85;5.40;;;;;;;;;;6143483;23;20005;-72
2021/11/21 02:13:49;;;;;;;8.13;5.32;;;;;;;;;;6143443;23;20021;-73
2021/11/21 02:16:16;;;;;;;9.93;5.40;;;;;;;;;;6141991;23;20013;-73
2021/11/21 02:18:43;;;;;;;7.22;5.50;;;;;;;;;;6117365;23;20001;-72
2021/11/21 02:21:10;;;;;;;7.28;5.32;;;;;;;;;;6140658;23;20370;-73
2021/11/21 02:23:36;;;;;;;8.73;5.20;;;;;;;;;;6143445;23;20005;-73
2021/11/21 02:26:02;;;;;;;7.43;5.18;;;;;;;;;;6143495;23;20244;-72
2021/11/21 02:28:29;;;;;;;7.15;5.18;;;;;;;;;;6142178;23;20371;-72
2021/11/21 02:30:55;;;;;;;8.52;5.53;;;;;;;;;;6143180;23;20059;-72
2021/11/21 02:33:22;;;;;;;10.10;5.10;;;;;;;;;;6142725;23;20441;-72
2021/11/21 02:35:50;;;;;;;7.07;5.00;;;;;;;;;;6141279;23;20049;-72
2021/11/21 02:38:17;;;;;;;6.90;5.22;;;;;;;;;;6143187;23;20052;-72
2021/11/21 02:40:43;;;;;;;9.05;5.55;;;;;;;;;;6142895;23;20564;-72
2021/11/21 02:43:09;;;;;;;9.35;5.00;;;;;;;;;;6142665;23;20032;-72
2021/11/21 02:45:35;;;;;;;6.57;4.93;;;;;;;;;;6142896;23;20001;-72
2021/11/21 02:48:02;;;;;;;7.22;5.53;;;;;;;;;;6144583;23;20006;-72
2021/11/21 02:50:29;;;;;;;6.82;4.93;;;;;;;;;;6144002;23;20004;-72
2021/11/21 02:52:58;;;;;;;7.85;5.18;;;;;;;;;;6146186;23;20013;-72
2021/11/21 02:55:26;;;;;;;8.98;5.22;;;;;;;;;;6146143;23;20088;-72
2021/11/21 02:57:52;;;;;;;7.15;5.32;;;;;;;;;;6145821;23;20012;-72
2021/11/21 03:00:18;;;;;;;7.38;5.25;;;;;;;;;;6145890;23;20159;-72
2021/11/21 03:02:45;;;;;;;6.65;5.05;;;;;;;;;;6144053;23;20334;-73
2021/11/21 03:05:12;;;;;;;7.53;5.50;;;;;;;;;;6146135;23;20651;-72
2021/11/21 03:07:38;;;;;;;7.78;5.80;;;;;;;;;;6146201;23;20006;-72
2021/11/21 03:10:06;;;;;;;8.10;5.50;;;;;;;;;;6146051;23;20001;-72
2021/11/21 03:12:32;;;;;;;8.88;5.75;;;;;;;;;;6145256;23;20021;-72
2021/11/21 03:14:58;;;;;;;7.40;5.13;;;;;;;;;;6143635;23;20072;-72
2021/11/21 03:17:24;;;;;;;8.57;5.55;;;;;;;;;;6145513;23;20012;-73
2021/11/21 03:19:50;;;;;;;8.30;5.35;;;;;;;;;;6145749;23;20034;-73
2021/11/21 03:22:18;;;;;;;8.15;5.28;;;;;;;;;;6145736;23;20221;-72
2021/11/21 03:24:45;;;;;;;7.90;5.65;;;;;;;;;;6145457;23;20001;-73
2021/11/21 03:27:11;;;;;;;7.85;5.32;;;;;;;;;;6144220;23;20447;-72
2021/11/21 03:29:38;;;;;;;10.43;5.82;;;;;;;;;;6145828;23;20011;-72
2021/11/21 03:32:04;;;;;;;7.57;5.10;;;;;;;;;;6145501;23;20021;-73
2021/11/21 03:34:31;;;;;;;7.50;5.47;;;;;;;;;;6145667;23;20024;-72
2021/11/21 03:36:57;;;;;;;7.30;5.45;;;;;;;;;;6145649;23;20057;-73
2021/11/21 03:39:23;;;;;;;7.00;5.03;;;;;;;;;;6118548;23;20009;-72
2021/11/21 03:41:50;;;;;;;9.77;6.32;;;;;;;;;;6145557;23;20069;-72
2021/11/21 03:44:17;;;;;;;8.90;6.25;;;;;;;;;;6145366;23;20002;-73
2021/11/21 03:46:43;;;;;;;6.75;5.60;;;;;;;;;;6144112;23;20342;-72
2021/11/21 03:49:09;;;;;;;7.18;5.53;;;;;;;;;;6140641;23;19997;-73
2021/11/21 03:51:35;;;;;;;7.72;5.60;;;;;;;;;;6142285;23;20020;-72
2021/11/21 03:54:02;;;;;;;7.32;5.90;;;;;;;;;;6142328;23;20501;-72
2021/11/21 03:56:28;;;;;;;9.45;6.47;;;;;;;;;;6142684;23;20013;-73
2021/11/21 03:58:54;;;;;;;7.97;6.00;;;;;;;;;;6141002;23;20048;-73
2021/11/21 04:01:20;;;;;;;8.30;5.63;;;;;;;;;;6142721;23;20029;-72
2021/11/21 04:03:46;;;;;;;7.47;5.97;;;;;;;;;;6112702;23;20506;-72
2021/11/21 04:06:13;;;;;;;8.07;5.78;;;;;;;;;;6139860;23;20008;-73
2021/11/21 04:08:40;;;;;;;8.45;5.25;;;;;;;;;;6139770;23;20009;-73
2021/11/21 04:11:06;;;;;;;7.00;5.55;;;;;;;;;;6138706;23;20382;-72
2021/11/21 04:13:32;;;;;;;7.75;5.53;;;;;;;;;;6137987;23;20073;-72
2021/11/21 04:15:58;;;;;;;6.40;5.00;;;;;;;;;;6139205;23;20025;-72
2021/11/21 04:18:24;;;;;;;8.93;5.75;;;;;;;;;;6139080;23;20012;-73
2021/11/21 04:20:51;;;;;;;10.20;6.45;;;;;;;;;;6136676;23;20007;-73
2021/11/21 04:23:17;;;;;;;8.10;6.43;;;;;;;;;;6138793;23;20005;-72
2021/11/21 04:25:43;;;;;;;8.20;5.90;;;;;;;;;;6137497;23;20430;-72
2021/11/21 04:28:11;;;;;;;12.05;6.63;;;;;;;;;;6139368;23;20005;-72
2021/11/21 04:30:37;;;;;;;10.68;5.75;;;;;;;;;;6139682;23;20006;-72
2021/11/21 04:33:03;;;;;;;10.18;6.50;;;;;;;;;;6138759;23;20435;-73
2021/11/21 04:35:30;;;;;;;8.07;5.25;;;;;;;;;;6138652;23;20009;-73
2021/11/21 04:37:56;;;;;;;11.85;5.93;;;;;;;;;;6139149;23;20250;-73
2021/11/21 04:40:22;;;;;;;8.98;6.85;;;;;;;;;;6137756;23;20005;-72
2021/11/21 04:42:49;;;;;;;8.50;5.90;;;;;;;;;;6139425;23;20534;-72
2021/11/21 04:45:15;;;;;;;9.38;5.97;;;;;;;;;;6113629;23;20017;-72
2021/11/21 04:47:41;;;;;;;7.95;5.68;;;;;;;;;;6138612;23;20001;-72
2021/11/21 04:50:09;;;;;;;8.68;5.90;;;;;;;;;;6138488;23;20009;-72
2021/11/21 04:52:35;;;;;;;8.85;5.50;;;;;;;;;;6139838;23;20006;-73
2021/11/21 04:55:01;;;;;;;8.93;6.82;;;;;;;;;;6141991;23;20073;-73
2021/11/21 04:57:28;;;;;;;7.90;5.38;;;;;;;;;;6142615;23;20029;-72
2021/11/21 04:59:54;;;;;;;10.52;5.75;;;;;;;;;;6142440;23;20005;-72
2021/11/21 05:02:20;;;;;;;9.25;5.80;;;;;;;;;;6142512;23;20008;-72
2021/11/21 05:04:46;;;;;;;7.55;5.32;;;;;;;;;;6140018;23;19998;-72
2021/11/21 05:07:12;;;;;;;7.57;4.97;;;;;;;;;;6142482;23;20005;-72
2021/11/21 05:09:38;;;;;;;6.05;4.82;;;;;;;;;;6142331;23;20024;-72
2021/11/21 05:12:05;;;;;;;8.73;5.45;;;;;;;;;;6142459;23;20005;-72
2021/11/21 05:14:31;;;;;;;6.05;5.05;;;;;;;;;;6141151;23;20768;-72
2021/11/21 05:16:59;;;;;;;6.90;4.85;;;;;;;;;;6142636;23;20006;-71
2021/11/21 05:19:26;;;;;;;7.38;5.05;;;;;;;;;;6139912;23;20494;-72
2021/11/21 05:21:52;;;;;;;6.40;4.63;;;;;;;;;;6139270;23;20248;-72
2021/11/21 05:24:23;;;;;;;6.88;4.47;;;;;;;;;;6141238;23;20005;-72
2021/11/21 05:26:50;;;;;;;9.27;4.80;;;;;;;;;;6140600;23;20021;-73
2021/11/21 05:29:17;;;;;;;7.30;4.65;;;;;;;;;;6140963;23;20066;-72
2021/11/21 05:31:43;;;;;;;6.10;4.28;;;;;;;;;;6140647;23;20005;-72
2021/11/21 05:34:09;;;;;;;6.43;4.68;;;;;;;;;;6139760;23;20001;-72
2021/11/21 05:36:35;;;;;;;6.65;4.72;;;;;;;;;;6114845;23;20017;-72
2021/11/21 05:39:03;;;;;;;7.63;5.05;;;;;;;;;;6140804;23;20520;-72
2021/11/21 05:41:29;;;;;;;6.88;4.68;;;;;;;;;;6140094;23;20010;-72
2021/11/21 05:43:55;;;;;;;7.53;5.05;;;;;;;;;;6139876;23;20084;-72
2021/11/21 05:46:21;;;;;;;7.72;4.80;;;;;;;;;;6141184;23;20009;-72
2021/11/21 05:48:47;;;;;;;10.05;4.93;;;;;;;;;;6137908;23;20454;-72
2021/11/21 05:51:14;;;;;;;6.40;4.50;;;;;;;;;;6140880;23;20427;-72
2021/11/21 05:53:40;;;;;;;7.63;4.97;;;;;;;;;;6140957;23;20012;-72
2021/11/21 05:56:06;;;;;;;8.15;4.93;;;;;;;;;;6140003;23;20040;-71
2021/11/21 05:58:33;;;;;;;7.75;4.93;;;;;;;;;;6139334;23;20324;-71
2021/11/21 06:00:59;;;;;;;9.48;4.93;;;;;;;;;;6141588;23;20036;-72
2021/11/21 06:03:26;;;;;;;8.35;4.93;;;;;;;;;;6143824;23;20387;-72
2021/11/21 06:05:52;;;;;;;6.80;4.50;;;;;;;;;;6143599;23;19993;-72
2021/11/21 06:08:18;;;;;;;7.43;4.63;;;;;;;;;;6142284;23;20001;-72
2021/11/21 06:10:45;;;;;;;10.13;4.88;;;;;;;;;;6143164;23;20631;-72
2021/11/21 06:13:11;;;;;;;7.68;5.40;;;;;;;;;;6143699;23;20005;-72
2021/11/21 06:15:38;;;;;;;9.10;4.80;;;;;;;;;;6143669;23;20019;-72
2021/11/21 06:18:04;;;;;;;6.85;5.15;;;;;;;;;;6143509;23;20428;-72
2021/11/21 06:20:31;;;;;;;6.72;4.88;;;;;;;;;;6143597;23;20001;-72
2021/11/21 06:22:57;;;;;;;7.63;4.68;;;;;;;;;;6141518;23;20036;-72
2021/11/21 06:25:23;;;;;;;6.45;4.82;;;;;;;;;;6143270;23;20009;-71
2021/11/21 06:27:49;;;;;;;6.43;4.72;;;;;;;;;;6143080;23;20006;-72
2021/11/21 06:30:15;;;;;;;8.75;5.30;;;;;;;;;;6143365;23;20364;-71
2021/11/21 06:32:42;;;;;;;7.18;5.07;;;;;;;;;;6141860;23;20012;-71
2021/11/21 06:35:08;;;;;;;7.30;4.93;;;;;;;;;;6143664;23;20091;-72
2021/11/21 06:37:35;;;;;;;7.57;5.13;;;;;;;;;;6143337;23;20028;-71
2021/11/21 06:40:01;;;;;;;7.15;5.35;;;;;;;;;;6143454;23;20002;-71
2021/11/21 06:42:27;;;;;;;6.72;5.13;;;;;;;;;;6143401;23;20008;-72
2021/11/21 06:44:53;;;;;;;6.20;4.90;;;;;;;;;;6143480;23;20008;-72
2021/11/21 06:47:19;;;;;;;7.05;4.25;;;;;;;;;;6141594;23;20006;-71
2021/11/21 06:49:46;;;;;;;6.97;4.60;;;;;;;;;;6143786;23;20009;-72
2021/11/21 06:52:14;;;;;;;8.00;4.88;;;;;;;;;;6140987;23;20816;-72
2021/11/21 06:54:40;;;;;;;7.22;5.53;;;;;;;;;;6143423;23;20037;-72
2021/11/21 06:57:06;;;;;;;8.50;5.75;;;;;;;;;;6143391;23;20434;-71
2021/11/21 06:59:32;;;;;;;8.15;5.65;;;;;;;;;;6143183;23;20446;-71
2021/11/21 07:01:59;;;;;;;6.57;5.03;;;;;;;;;;6141504;23;20001;-72
2021/11/21 07:04:25;;;;;;;6.38;5.07;;;;;;;;;;6143561;23;20006;-72
2021/11/21 07:06:51;;;;;;;7.18;4.93;;;;;;;;;;6143549;23;20005;-72
2021/11/21 07:09:17;;;;;;;6.57;4.95;;;;;;;;;;6143580;23;20001;-72
2021/11/21 07:11:45;;;;;;;7.18;5.13;;;;;;;;;;6141159;23;20006;-72
2021/11/21 07:14:11;;;;;;;7.40;4.70;;;;;;;;;;6143340;23;20013;-72
2021/11/21 07:16:38;;;;;;;6.95;4.90;;;;;;;;;;6143297;23;20006;-71
2021/11/21 07:19:04;;;;;;;6.50;4.43;;;;;;;;;;6143281;23;20001;-72
2021/11/21 07:21:31;;;;;;;6.38;4.75;;;;;;;;;;6142982;23;20012;-71
2021/11/21 07:23:57;;;;;;;7.65;4.85;;;;;;;;;;6141513;23;19997;-72
2021/11/21 07:26:23;;;;;;;7.15;5.28;;;;;;;;;;6142982;23;20055;-71
2021/11/21 07:28:50;;;;;;;8.70;6.05;;;;;;;;;;6143795;23;20064;-72
2021/11/21 07:31:16;;;;;;;8.02;5.88;;;;;;;;;;6142846;23;20088;-72
2021/11/21 07:33:42;;;;;;;7.68;5.60;;;;;;;;;;6143754;23;20001;-72
2021/11/21 07:36:09;;;;;;;8.07;5.30;;;;;;;;;;6140468;23;20012;-72
2021/11/21 07:38:35;;;;;;;8.15;5.13;;;;;;;;;;6143206;23;20005;-71
2021/11/21 07:41:02;;;;;;;5.22;4.63;;;;;;;;;;6142410;23;20502;-71
2021/11/21 07:43:28;;;;;;;5.95;4.57;;;;;;;;;;6142777;23;20569;-71
2021/11/21 07:45:54;;;;;;;7.05;4.63;;;;;;;;;;6143381;23;20613;-71
2021/11/21 07:48:21;;;;;;;6.53;4.68;;;;;;;;;;6141432;23;20005;-72
2021/11/21 07:50:47;;;;;;;6.28;4.40;;;;;;;;;;6142892;23;20028;-71
2021/11/21 07:53:13;;;;;;;4.18;3.75;;;;;;;;;;6143085;23;20012;-71
2021/11/21 07:55:39;;;;;;;6.00;4.45;;;;;;;;;;6142471;23;20629;-71
2021/11/21 07:58:05;;;;;;;6.18;4.43;;;;;;;;;;6142582;23;20005;-72
2021/11/21 08:00:32;;;;;;;5.70;4.50;;;;;;;;;;6137893;23;20005;-72
2021/11/21 08:02:58;;;;;;;4.50;3.80;;;;;;;;;;6139580;23;20081;-71
2021/11/21 08:05:24;;;;;;;5.65;4.50;;;;;;;;;;6142940;23;20009;-72
2021/11/21 08:07:50;;;;;;;6.57;4.80;;;;;;;;;;6141339;23;20013;-72
2021/11/21 08:10:17;;;;;;;5.28;4.28;;;;;;;;;;6142277;23;20020;-72
2021/11/21 08:12:43;;;;;;;7.53;4.65;;;;;;;;;;6142409;23;20076;-72
2021/11/21 08:15:09;;;;;;;6.07;4.82;;;;;;;;;;6142958;23;20048;-72
2021/11/21 08:17:35;;;;;;;6.07;4.80;;;;;;;;;;6140670;23;20002;-72
2021/11/21 08:20:02;;;;;;;5.93;4.50;;;;;;;;;;6142448;23;20001;-72
2021/11/21 08:22:28;;;;;;;6.10;4.70;;;;;;;;;;6142544;23;20128;-72
2021/11/21 08:24:55;;;;;;;6.22;4.55;;;;;;;;;;6142922;23;20057;-72
2021/11/21 08:27:21;;;;;;;9.38;4.70;;;;;;;;;;6142742;23;20001;-71
2021/11/21 08:29:49;;;;;;;6.13;4.97;;;;;;;;;;6142630;23;20008;-71
2021/11/21 08:32:16;;;;;;;6.28;4.25;;;;;;;;;;6140363;23;20213;-71
2021/11/21 08:34:42;;;;;;;7.13;5.40;;;;;;;;;;6142474;23;20623;-72
2021/11/21 08:37:08;;;;;;;6.68;4.57;;;;;;;;;;6142652;23;20607;-71
2021/11/21 08:39:34;;;;;;;6.00;4.53;;;;;;;;;;6142439;23;19997;-72
2021/11/21 08:42:00;;;;;;;5.40;4.35;;;;;;;;;;6142931;23;20009;-71
2021/11/21 08:44:26;;;;;;;5.22;4.28;;;;;;;;;;6141856;23;20020;-72
2021/11/21 08:46:53;;;;;;;6.32;4.80;;;;;;;;;;6142361;23;20037;-72
2021/11/21 08:49:19;;;;;;;5.30;4.63;;;;;;;;;;6142970;23;20062;-71
2021/11/21 08:51:45;;;;;;;5.90;4.70;;;;;;;;;;6140841;23;20061;-72
2021/11/21 08:54:12;;;;;;;7.43;4.97;;;;;;;;;;6142200;23;20006;-71
2021/11/21 08:56:38;;;;;;;6.78;5.10;;;;;;;;;;6144511;23;20016;-72
2021/11/21 08:59:05;;;;;;;6.47;5.18;;;;;;;;;;6144596;23;19997;-72
2021/11/21 09:01:31;;;;;;;7.47;5.38;;;;;;;;;;6144565;23;20013;-71
2021/11/21 09:03:57;;;;;;;6.75;4.70;;;;;;;;;;6142854;23;20010;-72
2021/11/21 09:06:23;;;;;;;5.47;4.72;;;;;;;;;;6144323;23;19998;-71
2021/11/21 09:08:50;;;;;;;5.63;4.53;;;;;;;;;;6144052;23;20097;-71
2021/11/21 09:11:16;;;;;;;5.55;4.53;;;;;;;;;;6144169;23;20002;-72
2021/11/21 09:13:42;;;;;;;5.85;4.25;;;;;;;;;;6142372;23;20355;-72
2021/11/21 09:16:08;;;;;;;5.55;4.72;;;;;;;;;;6143930;23;20018;-71
2021/11/21 09:18:35;;;;;;;6.10;4.38;;;;;;;;;;6144782;23;20021;-71
2021/11/21 09:21:01;;;;;;;6.07;5.38;;;;;;;;;;6144206;23;20012;-72
2021/11/21 09:23:28;;;;;;;6.03;4.97;;;;;;;;;;6116103;23;20071;-72
2021/11/21 09:25:54;;;;;;;7.38;5.40;;;;;;;;;;6118242;23;20541;-72
2021/11/21 09:28:24;;;;;;;9.43;5.20;;;;;;;;;;6144462;23;20330;-71
2021/11/21 09:30:51;;;;;;;5.70;4.65;;;;;;;;;;6142985;23;20009;-72
2021/11/21 09:33:17;;;;;;;6.07;4.90;;;;;;;;;;6143858;23;20076;-71
2021/11/21 09:35:45;;;;;;;9.45;5.40;;;;;;;;;;6144036;23;20013;-72
2021/11/21 09:38:11;;;;;;;6.57;5.18;;;;;;;;;;6118337;23;20063;-71
2021/11/21 09:40:37;;;;;;;8.35;5.78;;;;;;;;;;6144261;23;20010;-71
2021/11/21 09:43:04;;;;;;;5.35;4.80;;;;;;;;;;6142206;23;20001;-71
2021/11/21 09:45:30;;;;;;;6.95;4.72;;;;;;;;;;6143615;23;19998;-72
2021/11/21 09:47:57;;;;;;;7.53;5.70;;;;;;;;;;6144029;23;20005;-71
2021/11/21 09:50:24;;;;;;;6.32;5.03;;;;;;;;;;6144126;23;20009;-71
2021/11/21 09:52:51;;;;;;;6.15;4.57;;;;;;;;;;6142547;23;20001;-71
2021/11/21 09:55:18;;;;;;;7.47;5.03;;;;;;;;;;6144310;23;20068;-72
2021/11/21 09:57:44;;;;;;;8.45;5.25;;;;;;;;;;6143442;23;20538;-72
2021/11/21 10:00:11;;;;;;;5.88;4.60;;;;;;;;;;6143762;23;20301;-71
2021/11/21 10:02:38;;;;;;;6.78;5.40;;;;;;;;;;6141960;23;20057;-72
2021/11/21 10:05:10;;;;;;;6.35;5.32;;;;;;;;;;6143922;23;20002;-72
2021/11/21 10:07:37;;;;;;;5.93;5.32;;;;;;;;;;6143732;23;20009;-71
2021/11/21 10:10:07;;;;;;;6.32;5.57;;;;;;;;;;6143604;23;20122;-71
2021/11/21 10:12:35;;;;;;;6.97;5.03;;;;;;;;;;6141971;23;20006;-71
2021/11/21 10:15:12;;;;;;;6.65;5.07;;;;;;;;;;6143472;23;20051;-71
2021/11/21 10:17:39;;;;;;;5.65;4.95;;;;;;;;;;6144020;23;20584;-71
2021/11/21 10:20:13;;;;;;;5.85;4.63;;;;;;;;;;6143943;23;20005;-72
2021/11/21 10:22:53;;;;;;;5.78;4.97;;;;;;;;;;6142163;23;20001;-72
2021/11/21 10:25:36;;;;;;;5.18;4.65;;;;;;;;;;6143546;23;20486;-72
2021/11/21 10:28:03;;;;;;;5.78;4.63;;;;;;;;;;6118265;23;20473;-71
2021/11/21 10:30:30;;;;;;;5.78;5.05;;;;;;;;;;6144368;23;20076;-72
2021/11/21 10:33:01;;;;;;;9.18;5.50;;;;;;;;;;6144044;23;20001;-71
2021/11/21 10:35:27;;;;;;;8.40;5.78;;;;;;;;;;6141872;23;20024;-71
2021/11/21 10:37:57;;;;;;;6.72;5.00;;;;;;;;;;6143906;23;20002;-71
2021/11/21 10:40:24;;;;;;;6.55;5.28;;;;;;;;;;6143725;23;20435;-72
2021/11/21 10:42:51;;;;;;;7.35;5.03;;;;;;;;;;6143600;23;20001;-71
2021/11/21 10:45:23;;;;;;;7.40;5.13;;;;;;;;;;6117372;23;20430;-72
2021/11/21 10:47:53;;;;;;;7.57;4.70;;;;;;;;;;6115952;23;20545;-72
2021/11/21 10:50:29;;;;;;;6.97;5.03;;;;;;;;;;6143390;23;20009;-71
2021/11/21 10:52:56;;;;;;;8.68;5.47;;;;;;;;;;6143157;23;20001;-71
2021/11/21 10:55:22;;;;;;;7.88;5.32;;;;;;;;;;6143969;23;20044;-71
2021/11/21 10:57:48;;;;;;;7.72;4.88;;;;;;;;;;6143836;23;20005;-71
2021/11/21 11:00:17;;;;;;;6.60;5.38;;;;;;;;;;6143605;23;20032;-72
2021/11/21 11:02:43;;;;;;;12.82;5.70;;;;;;;;;;6141871;23;20080;-72
2021/11/21 11:05:21;;;;;;;6.28;4.97;;;;;;;;;;6143403;23;20001;-72
2021/11/21 11:07:47;;;;;;;6.47;5.00;;;;;;;;;;6143648;23;20040;-72
2021/11/21 11:10:15;;;;;;;8.80;6.95;;;;;;;;;;6143245;23;20008;-71
2021/11/21 11:12:43;;;;;;;10.32;7.60;;;;;;;;;;6141489;23;20028;-72
2021/11/21 11:15:09;;;;;;;7.88;6.30;;;;;;;;;;6143161;23;20017;-71
2021/11/21 11:17:37;;;;;;;7.10;5.82;;;;;;;;;;6143247;23;20017;-71
2021/11/21 11:20:05;;;;;;;7.68;5.68;;;;;;;;;;6143776;23;20569;-72
2021/11/21 11:22:31;;;;;;;6.45;5.18;;;;;;;;;;6142878;23;20514;-71
2021/11/21 11:24:59;;;;;;;6.57;5.15;;;;;;;;;;6143267;23;20001;-72
2021/11/21 11:27:33;;;;;;;9.13;5.82;;;;;;;;;;6141503;23;20005;-72
2021/11/21 11:29:59;;;;;;;6.35;5.07;;;;;;;;;;6142997;23;20006;-72
2021/11/21 11:32:25;;;;;;;7.00;5.28;;;;;;;;;;6143209;23;20006;-71
2021/11/21 11:34:52;;;;;;;6.93;5.15;;;;;;;;;;6142687;23;20006;-71
2021/11/21 11:37:44;;;;;;;5.68;5.03;;;;;;;;;;6143115;23;20012;-72
2021/11/21 11:40:10;;;;;;;;;;;;;;;;;;6136778;23;20012;-71
2021/11/21 11:42:38;;;;;;;7.68;6.03;;;;;;;;;;6141549;23;20658;-72
2021/11/21 11:45:06;;;;;;;8.02;5.60;;;;;;;;;;6143139;23;20446;-72
2021/11/21 11:47:32;;;;;;;5.93;4.90;;;;;;;;;;6143047;23;20001;-71
2021/11/21 11:49:59;;;;;;;7.53;5.00;;;;;;;;;;6142916;23;20411;-72
2021/11/21 11:52:43;;;;;;;5.97;4.88;;;;;;;;;;6141396;23;20430;-71
2021/11/21 11:55:10;;;;;;;7.18;5.65;;;;;;;;;;6143179;23;20009;-71
2021/11/21 11:57:37;;;;;;;7.05;5.45;;;;;;;;;;6143106;23;20072;-71
2021/11/21 12:00:22;;;;;;;6.20;4.47;;;;;;;;;;6142843;23;20012;-71
2021/11/21 12:02:49;;;;;;;7.38;5.13;;;;;;;;;;6141194;23;20008;-72
2021/11/21 12:05:27;;;;;;;5.43;4.78;;;;;;;;;;6142650;23;20136;-72
2021/11/21 12:08:11;;;;;;;6.50;4.70;;;;;;;;;;6143230;23;20061;-72
2021/11/21 12:10:48;;;;;;;5.60;4.65;;;;;;;;;;6142493;23;20499;-71
2021/11/21 12:13:26;;;;;;;6.00;4.57;;;;;;;;;;6142607;23;20046;-72
2021/11/21 12:15:54;;;;;;;7.80;5.32;;;;;;;;;;6141103;23;20017;-72
2021/11/21 12:18:22;;;;;;;6.88;5.35;;;;;;;;;;6142353;23;20001;-71
2021/11/21 12:20:53;;;;;;;6.53;4.93;;;;;;;;;;6142718;23;20036;-71
2021/11/21 12:23:38;;;;;;;5.60;4.38;;;;;;;;;;6142743;23;19998;-72
2021/11/21 12:26:22;;;;;;;6.22;4.60;;;;;;;;;;6140867;23;20448;-71
2021/11/21 12:29:03;;;;;;;6.78;5.28;;;;;;;;;;6142859;23;20080;-71
2021/11/21 12:31:30;;;;;;;7.15;5.20;;;;;;;;;;6142814;23;20002;-71
2021/11/21 12:34:22;;;;;;;7.65;5.60;;;;;;;;;;6141033;23;20072;-72
2021/11/21 12:37:06;;;;;;;9.35;6.00;;;;;;;;;;6142604;23;20019;-72
2021/11/21 12:39:33;;;;;;;6.15;5.03;;;;;;;;;;6142560;23;20015;-72
2021/11/21 12:42:11;;;;;;;13.13;5.53;;;;;;;;;;6116518;23;20382;-72
2021/11/21 12:44:38;;;;;;;6.13;4.90;;;;;;;;;;6140895;23;20108;-72
2021/11/21 12:47:05;;;;;;;7.93;5.35;;;;;;;;;;6142664;23;20029;-71
2021/11/21 12:49:32;;;;;;;8.18;5.30;;;;;;;;;;6142405;23;20004;-71
2021/11/21 12:52:17;;;;;;;5.65;4.95;;;;;;;;;;6142479;23;20019;-71
2021/11/21 12:54:43;;;;;;;7.50;5.88;;;;;;;;;;6142312;23;20014;-72
2021/11/21 12:57:12;;;;;;;8.75;5.40;;;;;;;;;;6142602;23;20438;-71
2021/11/21 12:59:59;;;;;;;7.18;5.68;;;;;;;;;;6140773;23;20009;-72
2021/11/21 13:02:26;;;;;;;7.93;5.53;;;;;;;;;;6142619;23;20374;-71
2021/11/21 13:05:04;;;;;;;6.25;5.32;;;;;;;;;;6142356;23;20059;-72
2021/11/21 13:07:33;;;;;;;6.78;5.93;;;;;;;;;;6142258;23;20054;-72
2021/11/21 13:10:08;;;;;;;7.75;5.80;;;;;;;;;;6140549;23;20445;-72
2021/11/21 13:12:44;;;;;;;7.00;5.47;;;;;;;;;;6142188;23;20108;-71
2021/11/21 13:15:15;;;;;;;9.65;8.30;;;;;;;;;;6142309;23;20364;-72
2021/11/21 13:17:43;;;;;;;9.15;7.18;;;;;;;;;;6142008;23;20001;-72
2021/11/21 13:20:09;;;;;;;7.68;5.95;;;;;;;;;;6141778;23;20128;-72
2021/11/21 13:22:53;;;;;;;7.78;6.00;;;;;;;;;;6141026;23;20029;-72
2021/11/21 13:25:26;;;;;;;9.20;5.95;;;;;;;;;;6141647;23;20443;-71
2021/11/21 13:27:53;;;;;;;7.70;5.45;;;;;;;;;;6142122;23;19998;-71
2021/11/21 13:30:21;;;;;;;7.57;5.80;;;;;;;;;;6142007;23;20010;-71
2021/11/21 13:32:47;;;;;;;6.65;5.57;;;;;;;;;;6140185;23;20625;-72
2021/11/21 13:35:19;;;;;;;8.02;5.40;;;;;;;;;;6142504;23;20009;-72
2021/11/21 13:37:46;;;;;;;8.75;6.15;;;;;;;;;;6142513;23;20048;-71
2021/11/21 13:40:14;;;;;;;6.15;4.80;;;;;;;;;;6142434;23;19998;-72
2021/11/21 13:42:40;;;;;;;7.03;5.95;;;;;;;;;;6143315;23;20159;-71
2021/11/21 13:45:07;;;;;;;6.47;5.35;;;;;;;;;;6141809;23;20657;-71
2021/11/21 13:47:33;;;;;;;7.00;5.43;;;;;;;;;;6146017;23;20009;-72
2021/11/21 13:50:00;;;;;;;9.35;6.65;;;;;;;;;;6142592;23;20398;-72
2021/11/21 13:52:30;;;;;;;8.45;6.88;;;;;;;;;;6139304;23;20096;-71
2021/11/21 13:54:58;;;;;;;7.65;6.32;;;;;;;;;;6140670;23;20097;-72
2021/11/21 13:57:29;;;;;;;9.80;6.53;;;;;;;;;;6139754;23;20334;-72
2021/11/21 13:59:57;;;;;;;9.05;7.22;;;;;;;;;;6138171;23;20572;-72
2021/11/21 14:02:34;;;;;;;8.27;6.20;;;;;;;;;;6139748;23;20710;-72
2021/11/21 14:05:01;;;;;;;7.82;5.95;;;;;;;;;;6141047;23;20005;-72
2021/11/21 14:07:28;;;;;;;9.45;6.25;;;;;;;;;;6139240;23;20014;-72
2021/11/21 14:10:08;;;;;;;8.75;5.75;;;;;;;;;;6139402;23;20636;-71
2021/11/21 14:12:41;;;;;;;9.48;6.05;;;;;;;;;;6138892;23;20015;-71
2021/11/21 14:15:09;;;;;;;7.45;5.90;;;;;;;;;;6113967;23;20021;-72
2021/11/21 14:17:43;;;;;;;9.27;7.40;;;;;;;;;;6138493;23;20483;-72
2021/11/21 14:20:10;;;;;;;8.80;6.30;;;;;;;;;;6140283;23;20006;-72
2021/11/21 14:22:39;;;;;;;10.25;6.85;;;;;;;;;;6138856;23;20040;-71
2021/11/21 14:25:06;;;;;;;8.02;6.13;;;;;;;;;;6138500;23;20261;-71
2021/11/21 14:27:33;;;;;;;6.82;5.85;;;;;;;;;;6139859;23;20012;-71
2021/11/21 14:30:05;;;;;;;7.32;5.57;;;;;;;;;;6139958;23;20084;-71
2021/11/21 14:32:32;;;;;;;7.13;6.43;;;;;;;;;;6137574;23;20002;-71
2021/11/21 14:34:58;;;;;;;6.70;5.35;;;;;;;;;;6139847;23;20017;-71
2021/11/21 14:37:24;;;;;;;6.28;5.32;;;;;;;;;;6138786;23;20002;-72
2021/11/21 14:39:53;;;;;;;10.43;6.28;;;;;;;;;;6138243;23;20044;-71
2021/11/21 14:42:27;;;;;;;7.80;6.43;;;;;;;;;;6140368;23;20033;-72
2021/11/21 14:44:53;;;;;;;8.68;6.93;;;;;;;;;;6140530;23;20482;-71
2021/11/21 14:47:21;;;;;;;9.38;7.32;;;;;;;;;;6139516;23;20109;-71